createdAt,value
2019-02-05T00:00:37.710Z,17.10
2019-02-05T00:03:07.481Z,17.53
2019-02-05T00:05:35.959Z,16.90
2019-02-05T00:08:04.398Z,16.37
2019-02-05T00:10:32.839Z,15.30
2019-02-05T00:13:01.213Z,15.47
2019-02-05T00:15:29.967Z,15.23
2019-02-05T00:17:58.339Z,14.23
2019-02-05T00:20:26.864Z,14.17
2019-02-05T00:22:55.265Z,15.80
2019-02-05T00:25:23.641Z,13.93
2019-02-05T00:27:52.047Z,16.50
2019-02-05T00:30:20.413Z,14.97
2019-02-05T00:32:48.844Z,14.97
2019-02-05T00:35:17.225Z,15.73
2019-02-05T00:37:45.603Z,15.10
2019-02-05T00:40:16.845Z,15.50
2019-02-05T00:42:45.250Z,15.17
2019-02-05T00:45:18.462Z,15.37
2019-02-05T00:47:46.898Z,15.50
2019-02-05T00:50:17.870Z,15.00
2019-02-05T00:52:46.266Z,15.63
2019-02-05T00:55:19.453Z,15.43
2019-02-05T00:57:47.837Z,16.07
2019-02-05T01:00:25.681Z,16.93
2019-02-05T01:02:54.174Z,16.37
2019-02-05T01:05:22.558Z,16.77
2019-02-05T01:07:50.988Z,18.73
2019-02-05T01:10:19.745Z,17.60
2019-02-05T01:12:48.186Z,17.40
2019-02-05T01:15:22.039Z,18.67
2019-02-05T01:17:50.408Z,19.17
2019-02-05T01:20:19.734Z,18.43
2019-02-05T01:22:48.089Z,18.93
2019-02-05T01:25:18.217Z,19.93
2019-02-05T01:27:46.947Z,19.43
2019-02-05T01:30:26.314Z,20.20
2019-02-05T01:32:54.695Z,20.33
2019-02-05T01:35:23.151Z,19.63
2019-02-05T01:37:51.585Z,19.80
2019-02-05T01:40:23.232Z,20.17
2019-02-05T01:42:51.626Z,18.97
2019-02-05T01:45:21.294Z,21.60
2019-02-05T01:47:49.750Z,21.80
2019-02-05T01:50:20.372Z,21.27
2019-02-05T01:52:48.783Z,18.40
2019-02-05T01:55:17.160Z,20.23
2019-02-05T01:57:45.622Z,19.27
2019-02-05T02:00:17.244Z,18.00
2019-02-05T02:02:45.661Z,20.67
2019-02-05T02:05:14.003Z,19.73
2019-02-05T02:07:42.421Z,19.07
2019-02-05T02:10:14.062Z,20.03
2019-02-05T02:12:42.506Z,20.27
2019-02-05T02:15:11.141Z,19.50
2019-02-05T02:17:39.544Z,19.10
2019-02-05T02:20:11.151Z,18.80
2019-02-05T02:22:39.561Z,20.13
2019-02-05T02:25:10.280Z,19.67
2019-02-05T02:27:38.726Z,21.17
2019-02-05T02:30:22.250Z,20.63
2019-02-05T02:32:50.627Z,20.17
2019-02-05T02:35:19.021Z,19.50
2019-02-05T02:37:47.382Z,20.97
2019-02-05T02:40:15.795Z,20.40
2019-02-05T02:42:44.184Z,18.83
2019-02-05T02:45:14.092Z,18.07
2019-02-05T02:47:42.476Z,17.53
2019-02-05T02:50:15.676Z,18.40
2019-02-05T02:52:45.730Z,18.97
2019-02-05T02:55:14.114Z,19.03
2019-02-05T02:57:42.736Z,19.23
2019-02-05T03:00:13.728Z,18.90
2019-02-05T03:02:42.080Z,18.90
2019-02-05T03:05:15.343Z,19.50
2019-02-05T03:07:44.038Z,19.47
2019-02-05T03:10:15.532Z,18.30
2019-02-05T03:12:43.947Z,18.50
2019-02-05T03:15:12.337Z,19.50
2019-02-05T03:17:40.760Z,19.70
2019-02-05T03:20:14.163Z,19.80
2019-02-05T03:22:45.111Z,20.13
2019-02-05T03:25:18.010Z,20.67
2019-02-05T03:27:46.482Z,20.80
2019-02-05T03:30:20.064Z,19.07
2019-02-05T03:32:48.669Z,19.13
2019-02-05T03:35:17.009Z,20.33
2019-02-05T03:37:46.451Z,21.27
2019-02-05T03:40:27.524Z,20.23
2019-02-05T03:42:55.961Z,19.80
2019-02-05T03:45:25.130Z,21.00
2019-02-05T03:47:54.014Z,19.90
2019-02-05T03:50:22.458Z,21.70
2019-02-05T03:52:54.113Z,20.20
2019-02-05T03:55:37.811Z,21.60
2019-02-05T03:58:09.479Z,19.63
2019-02-05T04:00:41.178Z,18.60
2019-02-05T04:03:15.586Z,18.87
2019-02-05T04:06:02.649Z,19.40
2019-02-05T04:08:43.336Z,19.80
2019-02-05T04:11:23.786Z,18.70
2019-02-05T04:14:04.070Z,17.53
2019-02-05T04:16:44.737Z,18.03
2019-02-05T04:19:25.350Z,18.63
2019-02-05T04:22:32.102Z,17.30
2019-02-05T04:25:29.262Z,18.00
2019-02-05T04:28:15.877Z,18.77
2019-02-05T04:30:58.943Z,20.90
2019-02-05T04:33:30.639Z,21.03
2019-02-05T04:36:08.046Z,20.47
2019-02-05T04:38:57.708Z,20.77
2019-02-05T04:41:38.007Z,20.23
2019-02-05T04:44:21.678Z,20.27
2019-02-05T04:46:59.050Z,19.23
2019-02-05T04:49:33.399Z,19.30
2019-02-05T04:52:24.833Z,18.87
2019-02-05T04:55:02.585Z,19.70
2019-02-05T04:57:58.071Z,20.17
2019-02-05T05:00:34.497Z,18.73
2019-02-05T05:03:18.022Z,19.90
2019-02-05T05:06:06.056Z,19.63
2019-02-05T05:08:43.730Z,19.37
2019-02-05T05:11:12.421Z,20.53
2019-02-05T05:13:40.876Z,20.00
2019-02-05T05:16:09.267Z,21.17
2019-02-05T05:18:37.743Z,20.37
2019-02-05T05:21:06.113Z,20.87
2019-02-05T05:23:34.590Z,22.27
2019-02-05T05:26:02.986Z,21.33
2019-02-05T05:28:31.659Z,21.60
2019-02-05T05:31:00.131Z,20.57
2019-02-05T05:33:28.492Z,21.47
2019-02-05T05:35:56.906Z,22.40
2019-02-05T05:38:25.253Z,21.70
2019-02-05T05:40:53.643Z,21.57
2019-02-05T05:43:22.008Z,21.40
2019-02-05T05:45:50.400Z,22.37
2019-02-05T05:48:18.762Z,21.77
2019-02-05T05:50:47.151Z,23.50
2019-02-05T05:53:15.517Z,23.27
2019-02-05T05:55:43.906Z,21.90
2019-02-05T05:58:22.254Z,21.63
2019-02-05T06:00:42.442Z,21.57
2019-02-05T06:03:20.145Z,21.90
2019-02-05T06:05:53.379Z,21.83
2019-02-05T06:08:21.895Z,22.03
2019-02-05T06:10:50.301Z,22.90
2019-02-05T06:13:18.673Z,22.50
2019-02-05T06:15:47.174Z,21.73
2019-02-05T06:18:15.838Z,22.73
2019-02-05T06:20:44.260Z,22.03
2019-02-05T06:23:12.633Z,22.77
2019-02-05T06:25:41.007Z,21.53
2019-02-05T06:28:09.415Z,21.80
2019-02-05T06:30:37.804Z,23.27
2019-02-05T06:33:06.201Z,22.50
2019-02-05T06:35:34.885Z,24.07
2019-02-05T06:38:03.460Z,22.03
2019-02-05T06:40:31.854Z,21.83
2019-02-05T06:43:00.183Z,21.87
2019-02-05T06:45:28.594Z,22.77
2019-02-05T06:47:56.974Z,22.20
2019-02-05T06:50:25.420Z,21.17
2019-02-05T06:52:54.163Z,20.87
2019-02-05T06:55:22.553Z,21.67
2019-02-05T06:57:50.974Z,19.40
2019-02-05T07:00:23.221Z,20.27
2019-02-05T07:02:53.041Z,20.13
2019-02-05T07:05:21.695Z,19.77
2019-02-05T07:07:50.101Z,18.60
2019-02-05T07:10:21.317Z,19.67
2019-02-05T07:12:49.709Z,18.20
2019-02-05T07:15:18.081Z,20.23
2019-02-05T07:17:49.811Z,19.57
2019-02-05T07:20:17.182Z,19.13
2019-02-05T07:22:45.554Z,18.00
2019-02-05T07:25:16.774Z,17.47
2019-02-05T07:27:45.135Z,18.57
2019-02-05T07:30:24.714Z,16.97
2019-02-05T07:32:53.176Z,18.37
2019-02-05T07:35:21.567Z,17.37
2019-02-05T07:37:49.932Z,18.63
2019-02-05T07:40:20.348Z,17.97
2019-02-05T07:42:48.894Z,17.17
2019-02-05T07:45:21.926Z,19.00
2019-02-05T07:47:50.309Z,19.40
2019-02-05T07:50:21.382Z,19.87
2019-02-05T07:52:49.772Z,19.10
2019-02-05T07:55:18.155Z,18.90
2019-02-05T07:57:46.829Z,19.20
2019-02-05T08:00:18.213Z,19.27
2019-02-05T08:02:46.611Z,18.83
2019-02-05T08:05:20.488Z,18.47
2019-02-05T08:07:49.408Z,18.53
2019-02-05T08:10:20.235Z,18.83
2019-02-05T08:12:49.140Z,18.10
2019-02-05T08:15:23.493Z,18.17
2019-02-05T08:17:52.124Z,16.60
2019-02-05T08:20:20.540Z,18.27
2019-02-05T08:22:48.936Z,19.73
2019-02-05T08:25:17.338Z,19.13
2019-02-05T08:27:45.792Z,18.73
2019-02-05T08:30:20.113Z,19.20
2019-02-05T08:32:48.554Z,18.37
2019-02-05T08:35:17.875Z,17.33
2019-02-05T08:37:46.257Z,17.73
2019-02-05T08:40:21.823Z,18.87
2019-02-05T08:42:50.206Z,19.33
2019-02-05T08:45:20.706Z,18.30
2019-02-05T08:47:49.151Z,18.70
2019-02-05T08:50:19.852Z,19.10
2019-02-05T08:52:48.301Z,18.53
2019-02-05T08:55:18.739Z,17.77
2019-02-05T08:57:47.645Z,17.90
2019-02-05T09:00:21.559Z,17.47
2019-02-05T09:02:53.006Z,19.07
2019-02-05T09:05:21.482Z,18.20
2019-02-05T09:07:49.904Z,18.77
2019-02-05T09:10:29.762Z,17.93
2019-02-05T09:12:58.362Z,17.47
2019-02-05T09:15:29.527Z,17.97
2019-02-05T09:17:57.337Z,18.00
2019-02-05T09:20:25.711Z,18.87
2019-02-05T09:22:54.181Z,18.13
2019-02-05T09:25:22.600Z,16.37
2019-02-05T09:27:53.409Z,16.73
2019-02-05T09:30:30.799Z,16.63
2019-02-05T09:33:01.527Z,17.77
2019-02-05T09:35:29.937Z,16.87
2019-02-05T09:37:58.545Z,17.90
2019-02-05T09:40:29.028Z,19.37
2019-02-05T09:42:57.517Z,19.00
2019-02-05T09:45:27.029Z,16.87
2019-02-05T09:47:55.885Z,18.77
2019-02-05T09:50:24.509Z,18.07
2019-02-05T09:52:52.880Z,17.67
2019-02-05T09:55:21.698Z,17.67
2019-02-05T09:57:50.128Z,17.00
2019-02-05T10:00:24.908Z,17.23
2019-02-05T10:02:53.780Z,17.47
2019-02-05T10:05:26.927Z,17.67
2019-02-05T10:07:55.318Z,16.60
2019-02-05T10:10:23.917Z,17.07
2019-02-05T10:12:52.334Z,16.87
2019-02-05T10:15:23.444Z,18.03
2019-02-05T10:17:52.025Z,18.10
2019-02-05T10:20:20.813Z,18.97
2019-02-05T10:22:49.270Z,17.77
2019-02-05T10:25:17.795Z,17.43
2019-02-05T10:27:46.166Z,18.23
2019-02-05T10:30:27.306Z,18.17
2019-02-05T10:32:55.914Z,18.60
2019-02-05T10:35:24.319Z,17.60
2019-02-05T10:37:52.749Z,17.93
2019-02-05T10:40:22.109Z,18.60
2019-02-05T10:42:50.466Z,17.27
2019-02-05T10:45:26.442Z,17.70
2019-02-05T10:47:55.022Z,16.67
2019-02-05T10:50:24.038Z,18.77
2019-02-05T10:52:52.600Z,17.17
2019-02-05T10:55:22.242Z,17.57
2019-02-05T10:57:52.134Z,17.43
2019-02-05T11:00:22.681Z,17.23
2019-02-05T11:02:51.098Z,17.43
2019-02-05T11:05:24.915Z,17.27
2019-02-05T11:07:53.326Z,17.70
2019-02-05T11:10:21.700Z,17.03
2019-02-05T11:12:50.148Z,16.63
2019-02-05T11:15:24.221Z,15.90
2019-02-05T11:17:52.653Z,16.43
2019-02-05T11:20:23.082Z,16.77
2019-02-05T11:22:51.484Z,16.57
2019-02-05T11:25:19.850Z,16.40
2019-02-05T11:27:48.255Z,18.07
2019-02-05T11:30:25.660Z,17.63
2019-02-05T11:32:54.142Z,17.70
2019-02-05T11:35:22.504Z,18.20
2019-02-05T11:37:51.391Z,18.50
2019-02-05T11:40:25.421Z,18.17
2019-02-05T11:42:53.808Z,18.17
2019-02-05T11:45:22.333Z,20.33
2019-02-05T11:47:50.706Z,17.87
2019-02-05T11:50:19.098Z,16.63
2019-02-05T11:52:47.668Z,17.07
2019-02-05T11:55:25.286Z,19.17
2019-02-05T11:57:53.698Z,17.13
2019-02-05T12:00:36.234Z,15.60
2019-02-05T12:03:05.182Z,15.70
2019-02-05T12:05:34.212Z,14.80
2019-02-05T12:08:02.594Z,16.43
2019-02-05T12:10:30.977Z,15.40
2019-02-05T12:12:59.532Z,16.03
2019-02-05T12:15:27.920Z,17.40
2019-02-05T12:17:56.429Z,17.50
2019-02-05T12:20:24.785Z,16.47
2019-02-05T12:22:53.264Z,19.93
2019-02-05T12:25:23.773Z,23.93
2019-02-05T12:27:52.308Z,23.97
2019-02-05T12:30:26.447Z,25.23
2019-02-05T12:32:54.815Z,25.40
2019-02-05T12:35:23.224Z,23.93
2019-02-05T12:37:51.675Z,25.67
2019-02-05T12:40:20.438Z,25.23
2019-02-05T12:42:48.826Z,26.63
2019-02-05T12:45:22.985Z,25.80
2019-02-05T12:47:51.425Z,26.93
2019-02-05T12:50:22.590Z,27.57
2019-02-05T12:52:50.969Z,26.50
2019-02-05T12:55:19.630Z,27.63
2019-02-05T12:57:48.026Z,27.90
2019-02-05T13:00:22.569Z,28.07
2019-02-05T13:02:51.054Z,29.97
2019-02-05T13:05:19.501Z,33.87
2019-02-05T13:07:47.893Z,30.63
2019-02-05T13:10:22.950Z,33.80
2019-02-05T13:12:51.366Z,33.00
2019-02-05T13:15:23.003Z,34.23
2019-02-05T13:17:51.640Z,34.47
2019-02-05T13:20:22.913Z,33.83
2019-02-05T13:22:51.286Z,34.10
2019-02-05T13:25:22.265Z,32.70
2019-02-05T13:27:50.711Z,31.90
2019-02-05T13:30:26.973Z,33.20
2019-02-05T13:32:55.495Z,32.70
2019-02-05T13:35:23.862Z,34.20
2019-02-05T13:37:52.426Z,30.40
2019-02-05T13:40:22.988Z,31.40
2019-02-05T13:42:51.332Z,33.83
2019-02-05T13:45:22.306Z,32.77
2019-02-05T13:47:50.752Z,33.53
2019-02-05T13:50:32.614Z,34.80
2019-02-05T13:52:51.830Z,34.77
2019-02-05T13:55:32.150Z,34.20
2019-02-05T13:58:00.574Z,35.70
2019-02-05T14:00:45.737Z,36.00
2019-02-05T14:03:14.131Z,34.70
2019-02-05T14:05:42.738Z,35.20
2019-02-05T14:08:11.169Z,35.83
2019-02-05T14:10:42.018Z,34.97
2019-02-05T14:13:10.403Z,37.97
2019-02-05T14:15:44.263Z,36.80
2019-02-05T14:18:12.947Z,37.27
2019-02-05T14:20:41.320Z,37.57
2019-02-05T14:23:09.748Z,35.30
2019-02-05T14:25:38.177Z,36.50
2019-02-05T14:28:08.907Z,36.87
2019-02-05T14:30:49.005Z,34.07
2019-02-05T14:33:17.438Z,34.30
2019-02-05T14:35:46.054Z,34.03
2019-02-05T14:38:14.456Z,34.83
2019-02-05T14:40:42.820Z,33.37
2019-02-05T14:43:11.294Z,33.87
2019-02-05T14:45:40.010Z,33.40
2019-02-05T14:48:08.534Z,33.43
2019-02-05T14:50:39.576Z,34.97
2019-02-05T14:53:08.798Z,32.80
2019-02-05T14:55:37.165Z,33.87
2019-02-05T14:58:07.532Z,34.00
2019-02-05T15:00:36.948Z,35.20
2019-02-05T15:03:26.414Z,36.13
2019-02-05T15:05:54.786Z,34.73
2019-02-05T15:08:23.171Z,34.23
2019-02-05T15:10:51.546Z,34.80
2019-02-05T15:13:19.998Z,34.73
2019-02-05T15:15:48.394Z,35.03
2019-02-05T15:18:16.773Z,35.17
2019-02-05T15:20:47.321Z,34.50
2019-02-05T15:23:15.717Z,34.23
2019-02-05T15:25:44.168Z,36.53
2019-02-05T15:28:12.751Z,35.10
2019-02-05T15:30:42.679Z,33.50
2019-02-05T15:33:30.725Z,36.13
2019-02-05T15:36:00.871Z,36.17
2019-02-05T15:38:29.603Z,35.80
2019-02-05T15:40:58.130Z,37.40
2019-02-05T15:43:26.566Z,36.47
2019-02-05T15:45:54.962Z,36.40
2019-02-05T15:48:23.424Z,38.50
2019-02-05T15:50:51.795Z,40.33
2019-02-05T15:53:20.246Z,39.80
2019-02-05T15:55:48.760Z,38.27
2019-02-05T15:58:17.230Z,39.50
2019-02-05T16:00:45.601Z,37.70
2019-02-05T16:03:14.002Z,38.50
2019-02-05T16:05:43.290Z,36.17
2019-02-05T16:08:11.787Z,38.27
2019-02-05T16:10:40.543Z,39.50
2019-02-05T16:13:08.951Z,38.47
2019-02-05T16:15:37.365Z,38.27
2019-02-05T16:18:05.737Z,35.20
2019-02-05T16:20:34.151Z,36.50
2019-02-05T16:23:02.607Z,38.57
2019-02-05T16:25:30.982Z,36.83
2019-02-05T16:27:59.329Z,37.93
2019-02-05T16:30:29.774Z,38.20
2019-02-05T16:32:58.252Z,35.17
2019-02-05T16:35:26.708Z,39.10
2019-02-05T16:37:55.279Z,38.00
2019-02-05T16:40:34.988Z,40.23
2019-02-05T16:43:03.436Z,36.63
2019-02-05T16:45:32.093Z,37.60
2019-02-05T16:48:00.488Z,38.47
2019-02-05T16:50:41.060Z,36.17
2019-02-05T16:53:09.938Z,38.10
2019-02-05T16:55:38.339Z,36.33
2019-02-05T16:58:07.199Z,36.70
2019-02-05T17:00:36.847Z,36.43
2019-02-05T17:03:06.149Z,35.63
2019-02-05T17:05:37.019Z,38.10
2019-02-05T17:08:05.657Z,35.20
2019-02-05T17:10:34.038Z,38.80
2019-02-05T17:13:02.496Z,36.80
2019-02-05T17:15:30.953Z,36.77
2019-02-05T17:17:59.319Z,37.07
2019-02-05T17:20:30.203Z,37.33
2019-02-05T17:23:00.694Z,37.57
2019-02-05T17:25:29.174Z,36.47
2019-02-05T17:28:00.290Z,39.10
2019-02-05T17:30:34.082Z,40.90
2019-02-05T17:33:02.473Z,39.53
2019-02-05T17:35:31.094Z,39.30
2019-02-05T17:38:01.555Z,41.63
2019-02-05T17:40:30.027Z,39.60
2019-02-05T17:42:58.550Z,40.17
2019-02-05T17:45:32.302Z,40.80
2019-02-05T17:48:02.366Z,40.80
2019-02-05T17:50:30.779Z,40.70
2019-02-05T17:52:59.493Z,39.13
2019-02-05T17:55:27.939Z,40.40
2019-02-05T17:57:56.333Z,37.83
2019-02-05T18:00:31.493Z,38.00
2019-02-05T18:02:59.973Z,40.67
2019-02-05T18:05:28.414Z,38.83
2019-02-05T18:07:56.990Z,40.73
2019-02-05T18:10:28.819Z,40.57
2019-02-05T18:12:57.274Z,43.53
2019-02-05T18:15:31.427Z,39.30
2019-02-05T18:17:59.862Z,40.90
2019-02-05T18:20:28.332Z,41.90
2019-02-05T18:22:56.696Z,41.70
2019-02-05T18:25:25.226Z,44.07
2019-02-05T18:27:53.591Z,42.23
2019-02-05T18:30:24.906Z,41.60
2019-02-05T18:33:03.086Z,40.83
2019-02-05T18:35:23.455Z,42.37
2019-02-05T18:37:51.930Z,40.67
2019-02-05T18:40:23.063Z,39.80
2019-02-05T18:42:51.462Z,41.87
2019-02-05T18:45:20.062Z,41.37
2019-02-05T18:47:48.515Z,43.37
2019-02-05T18:50:19.585Z,43.10
2019-02-05T18:52:48.079Z,42.43
2019-02-05T18:55:16.687Z,43.10
2019-02-05T18:57:45.093Z,44.87
2019-02-05T19:00:22.086Z,47.23
2019-02-05T19:02:50.911Z,41.80
2019-02-05T19:05:19.367Z,43.17
2019-02-05T19:07:47.799Z,43.30
2019-02-05T19:10:20.605Z,44.93
2019-02-05T19:12:48.979Z,44.77
2019-02-05T19:15:20.171Z,45.23
2019-02-05T19:17:48.629Z,45.57
2019-02-05T19:20:19.607Z,44.90
2019-02-05T19:22:48.112Z,45.60
2019-02-05T19:25:18.266Z,42.83
2019-02-05T19:27:46.631Z,43.20
2019-02-05T19:30:19.696Z,44.43
2019-02-05T19:32:48.203Z,43.70
2019-02-05T19:35:17.305Z,44.40
2019-02-05T19:37:45.895Z,44.30
2019-02-05T19:40:14.466Z,43.93
2019-02-05T19:42:42.941Z,44.67
2019-02-05T19:45:20.585Z,51.40
2019-02-05T19:47:49.057Z,44.47
2019-02-05T19:50:17.425Z,43.80
2019-02-05T19:52:46.183Z,44.47
2019-02-05T19:55:14.577Z,44.47
2019-02-05T19:57:45.249Z,42.00
2019-02-05T20:00:16.182Z,43.47
2019-02-05T20:02:44.582Z,44.10
2019-02-05T20:05:14.575Z,44.63
2019-02-05T20:07:43.045Z,45.17
2019-02-05T20:10:12.637Z,43.23
2019-02-05T20:12:41.062Z,43.00
2019-02-05T20:15:12.337Z,41.87
2019-02-05T20:17:40.950Z,41.50
2019-02-05T20:20:19.942Z,44.03
2019-02-05T20:22:48.715Z,42.13
2019-02-05T20:25:18.134Z,43.17
2019-02-05T20:27:46.610Z,43.93
2019-02-05T20:30:25.491Z,43.87
2019-02-05T20:32:53.974Z,42.73
2019-02-05T20:35:22.353Z,40.10
2019-02-05T20:37:51.130Z,46.00
2019-02-05T20:40:22.817Z,43.37
2019-02-05T20:42:51.228Z,42.13
2019-02-05T20:45:19.662Z,40.80
2019-02-05T20:47:48.047Z,40.60
2019-02-05T20:50:18.761Z,43.00
2019-02-05T20:52:47.194Z,39.77
2019-02-05T20:55:17.515Z,41.83
2019-02-05T20:57:45.877Z,42.90
2019-02-05T21:00:17.393Z,43.77
2019-02-05T21:02:45.843Z,44.17
2019-02-05T21:05:18.753Z,44.27
2019-02-05T21:07:47.223Z,43.47
2019-02-05T21:10:21.482Z,42.47
2019-02-05T21:12:50.027Z,40.03
2019-02-05T21:15:18.823Z,38.50
2019-02-05T21:17:47.276Z,38.10
2019-02-05T21:20:28.884Z,39.57
2019-02-05T21:22:51.186Z,37.27
2019-02-05T21:25:21.182Z,36.33
2019-02-05T21:27:49.529Z,37.47
2019-02-05T21:30:22.848Z,37.73
2019-02-05T21:32:51.223Z,37.07
2019-02-05T21:35:19.618Z,37.13
2019-02-05T21:37:48.082Z,37.87
2019-02-05T21:40:23.893Z,36.43
2019-02-05T21:42:52.371Z,37.07
2019-02-05T21:45:23.990Z,39.73
2019-02-05T21:47:52.397Z,37.13
2019-02-05T21:50:22.011Z,36.57
2019-02-05T21:52:50.853Z,37.33
2019-02-05T21:55:20.977Z,35.07
2019-02-05T21:57:49.453Z,35.27
2019-02-05T22:00:30.295Z,33.50
2019-02-05T22:02:58.682Z,33.77
2019-02-05T22:05:28.402Z,35.50
2019-02-05T22:07:57.047Z,33.47
2019-02-05T22:10:25.510Z,35.60
2019-02-05T22:12:53.886Z,36.57
2019-02-05T22:15:22.571Z,36.87
2019-02-05T22:17:50.962Z,38.90
2019-02-05T22:20:26.609Z,38.73
2019-02-05T22:22:56.206Z,39.43
2019-02-05T22:25:27.742Z,38.40
2019-02-05T22:27:56.240Z,42.10
2019-02-05T22:30:30.409Z,41.33
2019-02-05T22:32:58.721Z,40.17
2019-02-05T22:35:27.197Z,38.50
2019-02-05T22:37:55.576Z,39.13
2019-02-05T22:40:25.589Z,40.50
2019-02-05T22:42:54.052Z,39.10
2019-02-05T22:45:33.135Z,39.70
2019-02-05T22:48:01.550Z,41.00
2019-02-05T22:50:32.816Z,39.63
2019-02-05T22:53:02.943Z,38.53
2019-02-05T22:55:31.326Z,41.03
2019-02-05T22:57:59.728Z,41.93
2019-02-05T23:00:48.509Z,40.53
2019-02-05T23:03:22.226Z,42.93
2019-02-05T23:06:14.905Z,41.90
2019-02-05T23:08:43.268Z,41.07
2019-02-05T23:11:26.323Z,45.37
2019-02-05T23:13:54.785Z,44.83
2019-02-05T23:16:23.164Z,44.47
2019-02-05T23:18:51.578Z,42.03
2019-02-05T23:21:20.017Z,40.73
2019-02-05T23:23:48.481Z,42.07
2019-02-05T23:26:17.154Z,40.50
2019-02-05T23:28:45.552Z,40.70
2019-02-05T23:31:14.013Z,39.50
2019-02-05T23:33:44.568Z,38.43
2019-02-05T23:36:12.422Z,36.63
2019-02-05T23:38:42.265Z,38.23
2019-02-05T23:41:10.874Z,34.90
2019-02-05T23:43:39.407Z,36.67
2019-02-05T23:46:07.729Z,36.23
2019-02-05T23:48:36.146Z,36.30
2019-02-05T23:51:04.691Z,34.07
2019-02-05T23:53:33.120Z,34.17
2019-02-05T23:56:01.510Z,34.37
2019-02-05T23:58:30.178Z,34.13
